Petersburg James A Johnson Airport Petersburg US
ICAO: PAPG
IATA:
Category: Medium
Scheduled Services:

Elevation: 111 ft
TransAlt. 18000 ft.

Airport Communications:
AWOS 3:125.8
ANCHORAGE CNTR:118
CTAF:122.5
SITKA RDO:122.35

PAPG Zoom In..

If you have problems with the map follow the link
https://www.worldairports.se/pages/airport.php?
ICAO=PAPG

Runways:

(A) RW 05 length 6400 ft width 150 ft
---- / hdg 50

(B) RW 23 length 6400 ft width 150 ft
---- / hdg 230

Location; PAPG
Day. 14 / Time. 11.06 Zulu
* Altimeter: 29.77
* Temperature: 06° c. 42.8°f.
* Wind from: 000° Speed 00 kn.
Dewpoint: 04° c.
Visibility: 10 Statute Miles.
Clouds: Broken 2600 ft.
Clouds: Broken 3500 ft.

PAPG 141106Z AUTO 00000KT 10SM BKN026 BKN035 06/04 A2977 RMK AO2


Wind - Calm.

 
 
jpsmedia.com for Web Design worldairports.se 2018   terms of use